createdAt,value
2023-02-18T00:00:25.842Z,83.97
2023-02-18T00:00:57.946Z,84.36
2023-02-18T00:01:32.486Z,84.21
2023-02-18T00:02:06.956Z,83.97
2023-02-18T00:02:38.709Z,83.70
2023-02-18T00:03:10.372Z,83.46
2023-02-18T00:03:42.806Z,83.19
2023-02-18T00:04:14.494Z,83.29
2023-02-18T00:04:46.068Z,83.35
2023-02-18T00:05:18.112Z,83.38
2023-02-18T00:05:49.741Z,83.27
2023-02-18T00:06:24.660Z,83.23
2023-02-18T00:06:56.459Z,83.40
2023-02-18T00:07:28.179Z,83.36
2023-02-18T00:07:59.785Z,83.10
2023-02-18T00:08:31.408Z,83.11
2023-02-18T00:09:04.824Z,83.07
2023-02-18T00:09:39.001Z,83.04
2023-02-18T00:10:17.325Z,83.14
2023-02-18T00:10:49.118Z,83.19
2023-02-18T00:11:22.042Z,83.26
2023-02-18T00:11:53.783Z,83.22
2023-02-18T00:12:25.374Z,83.09
2023-02-18T00:12:57.164Z,83.28
2023-02-18T00:13:28.739Z,83.41
2023-02-18T00:14:02.372Z,83.30
2023-02-18T00:14:33.977Z,83.18
2023-02-18T00:15:06.806Z,83.29
2023-02-18T00:15:39.585Z,83.28
2023-02-18T00:16:13.106Z,83.19
2023-02-18T00:16:45.967Z,83.12
2023-02-18T00:17:17.567Z,83.19
2023-02-18T00:17:49.322Z,83.12
2023-02-18T00:18:20.922Z,83.18
2023-02-18T00:18:56.790Z,83.24
2023-02-18T00:19:28.468Z,83.13
2023-02-18T00:20:00.191Z,83.19
2023-02-18T00:20:33.693Z,83.02
2023-02-18T00:21:06.961Z,82.91
2023-02-18T00:21:39.892Z,83.03
2023-02-18T00:22:11.459Z,83.11
2023-02-18T00:22:43.115Z,83.10
2023-02-18T00:23:14.694Z,83.08
2023-02-18T00:23:46.452Z,83.10
2023-02-18T00:24:18.284Z,82.97
2023-02-18T00:24:50.047Z,82.82
2023-02-18T00:25:21.891Z,82.78
2023-02-18T00:26:06.479Z,82.72
2023-02-18T00:26:38.281Z,82.60
2023-02-18T00:27:09.872Z,82.56
2023-02-18T00:27:41.480Z,82.50
2023-02-18T00:28:13.092Z,82.47
2023-02-18T00:28:45.567Z,82.63
2023-02-18T00:29:17.287Z,82.84
2023-02-18T00:29:48.891Z,82.96
2023-02-18T00:30:20.696Z,83.11
2023-02-18T00:30:52.430Z,83.11
2023-02-18T00:31:26.888Z,83.07
2023-02-18T00:31:58.713Z,83.10
2023-02-18T00:32:30.743Z,82.95
2023-02-18T00:33:02.344Z,82.96
2023-02-18T00:33:34.283Z,82.98
2023-02-18T00:34:06.502Z,82.97
2023-02-18T00:34:38.246Z,83.02
2023-02-18T00:35:09.976Z,83.17
2023-02-18T00:35:41.570Z,82.84
2023-02-18T00:36:17.484Z,82.77
2023-02-18T00:36:49.098Z,82.83
2023-02-18T00:37:20.740Z,82.73
2023-02-18T00:37:53.186Z,82.77
2023-02-18T00:38:24.760Z,82.70
2023-02-18T00:38:59.817Z,82.51
2023-02-18T00:39:31.408Z,82.33
2023-02-18T00:40:04.116Z,82.20
2023-02-18T00:40:39.636Z,81.99
2023-02-18T00:41:11.603Z,81.98
2023-02-18T00:41:44.015Z,82.04
2023-02-18T00:42:15.732Z,82.09
2023-02-18T00:42:47.485Z,82.05
2023-02-18T00:43:19.092Z,81.94
2023-02-18T00:43:50.984Z,81.94
2023-02-18T00:44:22.687Z,81.93
2023-02-18T00:44:54.553Z,82.04
2023-02-18T00:45:26.185Z,82.21
2023-02-18T00:45:57.833Z,82.09
2023-02-18T00:46:29.785Z,82.08
2023-02-18T00:47:01.646Z,82.14
2023-02-18T00:47:33.346Z,82.48
2023-02-18T00:48:05.053Z,82.47
2023-02-18T00:48:36.703Z,82.49
2023-02-18T00:49:08.914Z,82.52
2023-02-18T00:49:40.552Z,82.44
2023-02-18T00:50:12.259Z,82.40
2023-02-18T00:50:44.588Z,82.17
2023-02-18T00:51:16.464Z,82.10
2023-02-18T00:51:48.159Z,81.85
2023-02-18T00:52:19.767Z,81.97
2023-02-18T00:52:51.436Z,82.06
2023-02-18T00:53:23.307Z,81.95
2023-02-18T00:53:54.958Z,81.97
2023-02-18T00:54:26.714Z,82.04
2023-02-18T00:54:58.283Z,82.07
2023-02-18T00:55:30.058Z,82.00
2023-02-18T00:56:01.704Z,82.08
2023-02-18T00:56:33.387Z,82.20
2023-02-18T00:57:05.082Z,82.03
2023-02-18T00:57:36.761Z,81.99
2023-02-18T00:58:08.416Z,81.85
2023-02-18T00:58:40.387Z,81.80
2023-02-18T00:59:12.085Z,82.03
2023-02-18T00:59:43.765Z,82.04
2023-02-18T01:00:15.842Z,81.91
2023-02-18T01:00:47.957Z,81.87
2023-02-18T01:01:20.842Z,81.76
2023-02-18T01:01:52.515Z,81.75
2023-02-18T01:02:24.221Z,81.60
2023-02-18T01:02:55.880Z,81.49
2023-02-18T01:03:27.740Z,81.40
2023-02-18T01:03:59.394Z,81.20
2023-02-18T01:04:31.102Z,81.27
2023-02-18T01:05:03.064Z,81.05
2023-02-18T01:05:35.527Z,81.06
2023-02-18T01:06:08.528Z,81.31
2023-02-18T01:06:40.486Z,81.44
2023-02-18T01:07:12.428Z,81.18
2023-02-18T01:07:44.185Z,81.14
2023-02-18T01:08:17.286Z,81.15
2023-02-18T01:08:49.760Z,81.15
2023-02-18T01:09:21.621Z,81.07
2023-02-18T01:09:53.241Z,80.97
2023-02-18T01:10:24.856Z,80.94
2023-02-18T01:10:58.570Z,81.11
2023-02-18T01:11:30.268Z,81.07
2023-02-18T01:12:02.272Z,81.17
2023-02-18T01:12:33.986Z,81.24
2023-02-18T01:13:05.770Z,81.03
2023-02-18T01:13:37.802Z,81.23
2023-02-18T01:14:09.541Z,81.29
2023-02-18T01:14:41.395Z,81.16
2023-02-18T01:15:15.596Z,81.29
2023-02-18T01:15:47.613Z,81.15
2023-02-18T01:16:19.782Z,81.04
2023-02-18T01:16:51.504Z,80.92
2023-02-18T01:17:23.196Z,81.03
2023-02-18T01:17:54.840Z,80.94
2023-02-18T01:18:27.424Z,80.91
2023-02-18T01:18:59.026Z,80.65
2023-02-18T01:19:30.644Z,80.46
2023-02-18T01:20:02.226Z,80.79
2023-02-18T01:20:38.858Z,80.71
2023-02-18T01:21:10.825Z,81.00
2023-02-18T01:21:42.438Z,81.12
2023-02-18T01:22:14.250Z,81.05
2023-02-18T01:22:46.484Z,81.02
2023-02-18T01:23:18.642Z,81.14
2023-02-18T01:23:50.390Z,80.99
2023-02-18T01:24:22.045Z,80.99
2023-02-18T01:24:54.001Z,81.26
2023-02-18T01:25:25.907Z,80.99
2023-02-18T01:25:58.462Z,80.98
2023-02-18T01:26:31.984Z,80.85
2023-02-18T01:27:03.937Z,80.71
2023-02-18T01:27:35.967Z,80.94
2023-02-18T01:28:08.745Z,80.69
2023-02-18T01:28:41.789Z,80.70
2023-02-18T01:29:13.711Z,80.79
2023-02-18T01:29:45.362Z,80.72
2023-02-18T01:30:18.402Z,80.62
2023-02-18T01:30:51.359Z,80.58
2023-02-18T01:31:23.843Z,80.61
2023-02-18T01:31:55.740Z,80.37
2023-02-18T01:32:27.648Z,80.62
2023-02-18T01:32:59.552Z,80.63
2023-02-18T01:33:31.281Z,80.67
2023-02-18T01:34:02.996Z,80.69
2023-02-18T01:34:34.818Z,80.71
2023-02-18T01:35:07.366Z,80.53
2023-02-18T01:35:40.716Z,80.55
2023-02-18T01:36:12.748Z,80.53
2023-02-18T01:36:44.336Z,80.45
2023-02-18T01:37:16.332Z,80.35
2023-02-18T01:37:48.174Z,80.32
2023-02-18T01:38:19.798Z,80.37
2023-02-18T01:38:51.612Z,80.41
2023-02-18T01:39:23.244Z,80.29
2023-02-18T01:39:54.885Z,80.50
2023-02-18T01:40:29.484Z,80.34
2023-02-18T01:41:01.165Z,80.41
2023-02-18T01:41:32.983Z,80.25
2023-02-18T01:42:05.078Z,80.21
2023-02-18T01:42:36.777Z,80.26
2023-02-18T01:43:11.407Z,80.13
2023-02-18T01:43:43.127Z,80.22
2023-02-18T01:44:22.266Z,80.33
2023-02-18T01:44:54.846Z,80.48
2023-02-18T01:45:35.640Z,80.52
2023-02-18T01:46:14.927Z,80.54
2023-02-18T01:46:47.392Z,80.49
2023-02-18T01:47:19.751Z,80.67
2023-02-18T01:47:51.404Z,80.65
2023-02-18T01:49:12.097Z,80.70
2023-02-18T01:49:47.241Z,81.14
2023-02-18T01:50:19.047Z,81.12
2023-02-18T01:50:59.267Z,80.82
2023-02-18T01:51:35.852Z,80.87
2023-02-18T01:52:16.379Z,80.99
2023-02-18T01:52:48.064Z,80.96
2023-02-18T01:53:27.471Z,81.04
2023-02-18T01:54:14.108Z,81.09
2023-02-18T01:54:49.863Z,81.00
2023-02-18T01:55:21.800Z,80.77
2023-02-18T01:55:53.531Z,80.80
2023-02-18T01:56:33.096Z,81.17
2023-02-18T01:57:11.696Z,81.38
2023-02-18T01:57:43.346Z,81.42
2023-02-18T01:58:15.946Z,81.30
2023-02-18T01:58:48.150Z,81.38
2023-02-18T01:59:42.493Z,81.43
2023-02-18T02:00:17.115Z,81.37
2023-02-18T02:00:48.783Z,81.34
2023-02-18T02:01:20.879Z,81.29
2023-02-18T02:01:54.143Z,81.41
2023-02-18T02:02:28.220Z,81.38
2023-02-18T02:02:59.921Z,81.26
2023-02-18T02:03:31.525Z,81.00
2023-02-18T02:04:03.512Z,80.93
2023-02-18T02:04:35.259Z,80.70
2023-02-18T02:05:07.786Z,80.49
2023-02-18T02:05:39.552Z,80.45
2023-02-18T02:06:17.682Z,80.43
2023-02-18T02:06:49.321Z,80.34
2023-02-18T02:07:23.781Z,80.35
2023-02-18T02:07:55.776Z,80.07
2023-02-18T02:08:29.212Z,79.64
2023-02-18T02:09:05.411Z,79.24
2023-02-18T02:09:39.120Z,79.36
2023-02-18T02:10:13.022Z,79.36
2023-02-18T02:11:23.490Z,79.08
2023-02-18T02:12:22.094Z,78.93
2023-02-18T02:12:59.328Z,78.87
2023-02-18T02:13:44.392Z,78.46
2023-02-18T02:14:35.226Z,78.19
2023-02-18T02:15:31.155Z,78.07
2023-02-18T02:16:35.600Z,78.02
2023-02-18T02:17:25.058Z,77.96
2023-02-18T02:17:56.651Z,78.04
2023-02-18T02:19:12.556Z,78.17
2023-02-18T02:20:18.372Z,78.03
2023-02-18T02:21:39.268Z,77.44
2023-02-18T02:22:48.120Z,77.46
2023-02-18T02:23:40.700Z,77.28
2023-02-18T02:24:54.378Z,77.12
2023-02-18T02:26:17.205Z,76.93
2023-02-18T02:26:59.732Z,76.38
2023-02-18T02:27:41.803Z,75.96
2023-02-18T02:28:44.364Z,75.96
2023-02-18T02:29:15.923Z,75.57
2023-02-18T02:30:18.191Z,75.42
2023-02-18T02:31:18.740Z,75.57
2023-02-18T02:32:10.658Z,75.47
2023-02-18T02:32:54.497Z,75.46
2023-02-18T02:34:04.186Z,75.39
2023-02-18T02:34:53.431Z,75.52
2023-02-18T02:35:47.863Z,75.24
2023-02-18T02:36:25.753Z,75.36
2023-02-18T02:37:00.114Z,75.36
2023-02-18T02:37:42.288Z,75.74
2023-02-18T02:38:19.105Z,76.04
2023-02-18T02:38:53.491Z,75.59
2023-02-18T02:40:15.911Z,75.36
2023-02-18T02:41:02.463Z,75.30
2023-02-18T02:42:22.216Z,75.47
2023-02-18T02:43:12.813Z,75.86
2023-02-18T02:44:14.356Z,76.06
2023-02-18T02:44:52.643Z,76.11
2023-02-18T02:45:47.521Z,76.27
2023-02-18T02:46:29.569Z,76.44
2023-02-18T02:47:12.110Z,76.68
2023-02-18T02:48:06.864Z,76.72
2023-02-18T02:48:41.514Z,76.74
2023-02-18T02:49:40.619Z,76.72
2023-02-18T02:50:43.839Z,76.67
2023-02-18T02:51:51.130Z,76.80
2023-02-18T02:52:31.087Z,76.48
2023-02-18T02:53:11.657Z,76.46
2023-02-18T02:53:44.477Z,76.51
2023-02-18T02:54:23.903Z,76.63
2023-02-18T02:54:55.552Z,76.80
2023-02-18T02:55:27.339Z,76.68
2023-02-18T02:55:58.994Z,76.66
2023-02-18T02:56:30.691Z,76.81
2023-02-18T02:57:13.967Z,76.87
2023-02-18T02:57:47.347Z,76.56
2023-02-18T02:58:19.592Z,76.69
2023-02-18T02:59:02.597Z,76.73
2023-02-18T02:59:37.989Z,77.04
2023-02-18T03:00:11.260Z,77.00
2023-02-18T03:00:48.564Z,77.17
2023-02-18T03:01:33.085Z,77.16
2023-02-18T03:02:23.177Z,76.83
2023-02-18T03:03:18.176Z,76.93
2023-02-18T03:04:12.670Z,77.02
2023-02-18T03:05:05.958Z,77.09
2023-02-18T03:06:06.903Z,77.07
2023-02-18T03:06:58.490Z,77.25
2023-02-18T03:07:50.324Z,76.74
2023-02-18T03:08:24.506Z,76.57
2023-02-18T03:09:21.603Z,76.78
2023-02-18T03:10:16.182Z,76.94
2023-02-18T03:10:59.893Z,76.85
2023-02-18T03:11:41.996Z,77.00
2023-02-18T03:12:37.162Z,76.97
2023-02-18T03:13:39.490Z,77.18
2023-02-18T03:14:27.652Z,77.55
2023-02-18T03:15:01.805Z,77.65
2023-02-18T03:16:10.854Z,77.41
2023-02-18T03:17:05.157Z,77.52
2023-02-18T03:17:53.142Z,77.05
2023-02-18T03:18:47.823Z,77.20
2023-02-18T03:19:37.242Z,77.35
2023-02-18T03:20:17.974Z,77.51
2023-02-18T03:20:56.017Z,77.39
2023-02-18T03:21:37.055Z,77.25
2023-02-18T03:22:15.817Z,77.14
2023-02-18T03:22:50.374Z,76.93
2023-02-18T03:23:28.047Z,76.89
2023-02-18T03:24:08.670Z,76.80
2023-02-18T03:24:43.920Z,77.10
2023-02-18T03:25:18.107Z,77.06
2023-02-18T03:25:51.046Z,76.86
2023-02-18T03:26:25.671Z,76.96
2023-02-18T03:27:02.684Z,76.93
2023-02-18T03:27:51.147Z,76.62
2023-02-18T03:28:26.216Z,76.47
2023-02-18T03:29:02.894Z,76.15
2023-02-18T03:29:35.724Z,76.24
2023-02-18T03:30:30.003Z,76.57
2023-02-18T03:31:15.189Z,76.97
2023-02-18T03:31:52.851Z,76.85
2023-02-18T03:32:27.315Z,76.70
2023-02-18T03:33:04.854Z,76.44
2023-02-18T03:34:00.127Z,76.68
2023-02-18T03:34:38.796Z,76.73
2023-02-18T03:35:16.055Z,76.51
2023-02-18T03:35:49.711Z,76.66
2023-02-18T03:36:22.394Z,76.49
2023-02-18T03:36:55.324Z,76.71
2023-02-18T03:37:27.634Z,76.68
2023-02-18T03:38:05.200Z,76.75
2023-02-18T03:38:39.722Z,76.85
2023-02-18T03:39:15.969Z,76.70
2023-02-18T03:39:52.995Z,76.99
2023-02-18T03:40:24.672Z,77.06
2023-02-18T03:40:56.805Z,77.26
2023-02-18T03:41:28.875Z,77.14
2023-02-18T03:42:00.553Z,76.98
2023-02-18T03:42:32.860Z,77.06
2023-02-18T03:43:04.448Z,77.11
2023-02-18T03:43:36.120Z,77.46
2023-02-18T03:44:09.698Z,77.30
2023-02-18T03:44:41.437Z,77.26
2023-02-18T03:45:13.071Z,77.50
2023-02-18T03:45:44.754Z,77.44
2023-02-18T03:46:16.509Z,77.35
2023-02-18T03:46:48.175Z,77.12
2023-02-18T03:47:20.197Z,77.20
2023-02-18T03:47:53.104Z,76.99
2023-02-18T03:48:24.847Z,76.74
2023-02-18T03:48:56.524Z,76.80
2023-02-18T03:49:28.146Z,77.12
2023-02-18T03:49:59.740Z,77.09
2023-02-18T03:50:31.451Z,77.05
2023-02-18T03:51:03.028Z,77.22
2023-02-18T03:51:34.800Z,77.13
2023-02-18T03:52:06.977Z,76.98
2023-02-18T03:52:38.552Z,77.20
2023-02-18T03:53:10.128Z,77.28
2023-02-18T03:53:41.902Z,77.05
2023-02-18T03:54:14.715Z,77.17
2023-02-18T03:54:46.446Z,77.09
2023-02-18T03:55:18.171Z,77.08
2023-02-18T03:55:49.796Z,77.22
2023-02-18T03:56:21.708Z,77.10
2023-02-18T03:56:53.352Z,77.38
2023-02-18T03:57:24.954Z,77.38
2023-02-18T03:57:56.608Z,77.39
2023-02-18T03:58:28.243Z,77.52
2023-02-18T03:58:59.864Z,77.54
2023-02-18T03:59:31.523Z,77.60
2023-02-18T04:00:06.788Z,77.73
2023-02-18T04:00:38.422Z,77.82
2023-02-18T04:01:10.122Z,77.55
2023-02-18T04:01:41.816Z,77.80
2023-02-18T04:02:13.441Z,77.80
2023-02-18T04:02:45.129Z,77.92
2023-02-18T04:03:16.720Z,77.92
2023-02-18T04:03:48.347Z,77.88
2023-02-18T04:04:20.080Z,77.77
2023-02-18T04:04:51.742Z,77.75
2023-02-18T04:05:23.390Z,77.94
2023-02-18T04:05:55.070Z,77.94
2023-02-18T04:06:26.756Z,77.93
2023-02-18T04:06:58.450Z,78.07
2023-02-18T04:07:30.105Z,78.15
2023-02-18T04:08:01.697Z,78.17
2023-02-18T04:08:33.431Z,78.20
2023-02-18T04:09:09.046Z,78.45
2023-02-18T04:09:40.839Z,78.33
2023-02-18T04:10:12.998Z,78.40
2023-02-18T04:10:44.660Z,78.40
2023-02-18T04:11:16.526Z,78.26
2023-02-18T04:11:48.102Z,78.45
2023-02-18T04:12:19.732Z,78.51
2023-02-18T04:12:51.462Z,78.39
2023-02-18T04:13:23.201Z,78.14
2023-02-18T04:13:54.810Z,78.45
2023-02-18T04:14:26.387Z,78.76
2023-02-18T04:14:57.981Z,78.82
2023-02-18T04:15:29.702Z,78.80
2023-02-18T04:16:01.333Z,78.86
2023-02-18T04:16:33.390Z,78.95
2023-02-18T04:17:05.055Z,79.53
2023-02-18T04:17:36.841Z,79.61
2023-02-18T04:18:08.639Z,79.65
2023-02-18T04:18:40.380Z,79.27
2023-02-18T04:19:12.035Z,79.07
2023-02-18T04:19:43.803Z,79.10
2023-02-18T04:20:16.695Z,78.99
2023-02-18T04:20:48.812Z,79.19
2023-02-18T04:21:20.376Z,79.47
2023-02-18T04:21:52.012Z,79.33
2023-02-18T04:22:23.609Z,79.11
2023-02-18T04:22:55.412Z,79.07
2023-02-18T04:23:27.095Z,79.35
2023-02-18T04:23:58.997Z,79.35
2023-02-18T04:24:30.563Z,79.31
2023-02-18T04:25:02.238Z,79.41
2023-02-18T04:25:34.507Z,79.67
2023-02-18T04:26:06.325Z,79.69
2023-02-18T04:26:38.147Z,79.56
2023-02-18T04:27:09.884Z,79.58
2023-02-18T04:27:41.768Z,79.31
2023-02-18T04:28:15.474Z,79.42
2023-02-18T04:28:47.131Z,79.42
2023-02-18T04:29:18.795Z,79.53
2023-02-18T04:29:50.835Z,79.57
2023-02-18T04:30:22.760Z,79.76
2023-02-18T04:30:54.470Z,79.82
2023-02-18T04:31:26.341Z,79.72
2023-02-18T04:31:58.062Z,79.71
2023-02-18T04:32:29.657Z,79.70
2023-02-18T04:33:01.431Z,79.90
2023-02-18T04:33:33.044Z,80.00
2023-02-18T04:34:06.208Z,80.23
2023-02-18T04:34:38.476Z,80.25
2023-02-18T04:35:10.079Z,80.25
2023-02-18T04:35:42.121Z,80.32
2023-02-18T04:36:13.833Z,80.31
2023-02-18T04:36:45.531Z,80.37
2023-02-18T04:37:17.204Z,80.29
2023-02-18T04:37:49.032Z,80.10
2023-02-18T04:38:20.644Z,80.05
2023-02-18T04:38:52.293Z,80.05
2023-02-18T04:39:24.647Z,79.92
2023-02-18T04:39:56.252Z,79.81
2023-02-18T04:40:30.724Z,79.67
2023-02-18T04:41:02.421Z,79.83
2023-02-18T04:41:34.212Z,79.87
2023-02-18T04:42:09.007Z,79.92
2023-02-18T04:42:40.897Z,80.18
2023-02-18T04:43:12.539Z,80.18
2023-02-18T04:43:44.149Z,80.53
2023-02-18T04:44:15.791Z,80.45
2023-02-18T04:44:47.747Z,80.33
2023-02-18T04:45:19.368Z,80.23
2023-02-18T04:45:51.005Z,80.23
2023-02-18T04:46:22.819Z,80.10
2023-02-18T04:46:54.529Z,80.22
2023-02-18T04:47:26.301Z,80.59
2023-02-18T04:47:57.993Z,80.42
2023-02-18T04:48:30.161Z,80.15
2023-02-18T04:49:01.798Z,80.15
2023-02-18T04:49:34.114Z,80.23
2023-02-18T04:50:06.480Z,80.08
2023-02-18T04:50:38.125Z,80.23
2023-02-18T04:51:09.777Z,80.40
2023-02-18T04:51:41.558Z,80.58
2023-02-18T04:52:13.211Z,80.58
2023-02-18T04:52:44.822Z,80.34
2023-02-18T04:53:16.412Z,80.18
2023-02-18T04:53:48.194Z,80.19
2023-02-18T04:54:19.808Z,80.03
2023-02-18T04:54:51.472Z,80.26
2023-02-18T04:55:23.232Z,80.31
2023-02-18T04:55:54.884Z,80.26
2023-02-18T04:56:26.551Z,80.35
2023-02-18T04:56:58.389Z,80.37
2023-02-18T04:57:29.948Z,80.12
2023-02-18T04:58:01.541Z,80.12
2023-02-18T04:58:33.338Z,80.21
2023-02-18T04:59:04.920Z,80.50
2023-02-18T04:59:36.647Z,80.70
2023-02-18T05:00:11.409Z,80.76
2023-02-18T05:00:43.168Z,80.68
2023-02-18T05:01:14.865Z,80.53
2023-02-18T05:01:46.498Z,80.48
2023-02-18T05:02:18.075Z,80.40
2023-02-18T05:02:49.649Z,80.51
2023-02-18T05:03:22.094Z,80.60
2023-02-18T05:03:53.712Z,80.67
2023-02-18T05:04:25.547Z,80.78
2023-02-18T05:04:57.347Z,80.75
2023-02-18T05:05:28.973Z,80.74
2023-02-18T05:06:00.577Z,80.80
2023-02-18T05:06:32.408Z,80.80
2023-02-18T05:07:04.153Z,80.78
2023-02-18T05:07:35.842Z,80.82
2023-02-18T05:08:08.985Z,80.78
2023-02-18T05:08:40.577Z,80.87
2023-02-18T05:09:13.002Z,81.10
2023-02-18T05:09:44.684Z,81.08
2023-02-18T05:10:17.930Z,80.70
2023-02-18T05:10:49.873Z,80.68
2023-02-18T05:11:21.485Z,80.82
2023-02-18T05:11:53.130Z,80.73
2023-02-18T05:12:24.799Z,80.90
2023-02-18T05:12:56.414Z,81.15
2023-02-18T05:13:28.013Z,81.24
2023-02-18T05:13:59.648Z,81.08
2023-02-18T05:14:31.323Z,81.12
2023-02-18T05:15:03.201Z,81.16
2023-02-18T05:15:35.345Z,81.25
2023-02-18T05:16:07.584Z,81.15
2023-02-18T05:16:39.567Z,81.33
2023-02-18T05:17:11.210Z,81.44
2023-02-18T05:17:42.815Z,81.50
2023-02-18T05:18:14.492Z,81.39
2023-02-18T05:18:46.076Z,81.32
2023-02-18T05:19:17.699Z,81.18
2023-02-18T05:19:49.359Z,81.21
2023-02-18T05:20:21.096Z,81.07
2023-02-18T05:20:52.801Z,81.42
2023-02-18T05:21:24.467Z,81.41
2023-02-18T05:21:56.132Z,81.43
2023-02-18T05:22:27.736Z,81.27
2023-02-18T05:22:59.796Z,81.26
2023-02-18T05:23:31.416Z,81.38
2023-02-18T05:24:03.124Z,81.14
2023-02-18T05:24:34.865Z,81.08
2023-02-18T05:25:07.101Z,80.90
2023-02-18T05:25:38.746Z,80.85
2023-02-18T05:26:10.724Z,80.77
2023-02-18T05:26:42.564Z,80.94
2023-02-18T05:27:14.171Z,80.97
2023-02-18T05:27:45.819Z,81.03
2023-02-18T05:28:17.773Z,81.26
2023-02-18T05:28:49.941Z,81.23
2023-02-18T05:29:21.612Z,81.36
2023-02-18T05:29:53.418Z,81.44
2023-02-18T05:30:25.068Z,81.45
2023-02-18T05:30:56.867Z,81.47
2023-02-18T05:31:28.711Z,81.19
2023-02-18T05:32:00.413Z,81.19
2023-02-18T05:32:32.199Z,81.25
2023-02-18T05:33:03.917Z,81.13
2023-02-18T05:33:35.486Z,81.30
2023-02-18T05:34:07.139Z,81.36
2023-02-18T05:34:38.815Z,81.33
2023-02-18T05:35:10.679Z,81.42
2023-02-18T05:35:42.379Z,81.61
2023-02-18T05:36:14.573Z,81.74
2023-02-18T05:36:46.390Z,82.22
2023-02-18T05:37:18.755Z,82.44
2023-02-18T05:37:50.621Z,82.71
2023-02-18T05:38:22.351Z,82.93
2023-02-18T05:38:53.975Z,83.18
2023-02-18T05:39:25.609Z,83.67
2023-02-18T05:39:57.255Z,83.76
2023-02-18T05:40:28.964Z,84.06
2023-02-18T05:41:00.577Z,84.20
2023-02-18T05:41:32.303Z,84.30
2023-02-18T05:42:04.227Z,84.34
2023-02-18T05:42:35.816Z,84.35
2023-02-18T05:43:07.570Z,84.43
2023-02-18T05:43:57.586Z,84.38
2023-02-18T05:44:32.425Z,84.50
2023-02-18T05:45:04.702Z,84.69
2023-02-18T05:45:36.782Z,84.50
2023-02-18T05:46:08.774Z,84.62
2023-02-18T05:46:40.707Z,84.71
2023-02-18T05:47:13.470Z,84.73
2023-02-18T05:47:45.205Z,84.82
2023-02-18T05:48:17.095Z,84.80
2023-02-18T05:48:48.728Z,84.81
2023-02-18T05:49:20.610Z,84.83
2023-02-18T05:49:52.189Z,84.79
2023-02-18T05:50:24.018Z,84.71
2023-02-18T05:50:55.613Z,84.73
2023-02-18T05:51:27.356Z,84.85
2023-02-18T05:51:59.416Z,84.65
2023-02-18T05:52:31.135Z,84.76
2023-02-18T05:53:02.777Z,84.82
2023-02-18T05:53:34.428Z,84.98
2023-02-18T05:54:06.058Z,85.12
2023-02-18T05:54:38.644Z,85.21
2023-02-18T05:55:10.403Z,85.51
2023-02-18T05:55:42.089Z,85.82
2023-02-18T05:56:13.772Z,85.87
2023-02-18T05:56:45.389Z,86.03
2023-02-18T05:57:16.994Z,86.29
2023-02-18T05:57:48.677Z,86.34
2023-02-18T05:58:20.435Z,86.33
2023-02-18T05:58:52.106Z,86.43
2023-02-18T05:59:24.101Z,86.50
2023-02-18T05:59:55.673Z,86.60
2023-02-18T06:00:27.381Z,86.58
2023-02-18T06:00:58.983Z,86.78
2023-02-18T06:01:30.612Z,86.86
2023-02-18T06:02:02.284Z,86.87
2023-02-18T06:02:34.099Z,87.07
2023-02-18T06:03:05.718Z,87.08
2023-02-18T06:03:37.505Z,87.13
2023-02-18T06:04:09.736Z,87.22
2023-02-18T06:04:41.326Z,87.26
2023-02-18T06:05:13.025Z,87.17
2023-02-18T06:05:44.662Z,87.22
2023-02-18T06:06:16.376Z,87.03
2023-02-18T06:06:48.042Z,86.91
2023-02-18T06:07:20.795Z,87.13
2023-02-18T06:07:52.399Z,87.34
2023-02-18T06:08:24.113Z,87.49
2023-02-18T06:08:55.743Z,87.58
2023-02-18T06:09:27.422Z,87.64
2023-02-18T06:09:59.088Z,88.09
2023-02-18T06:10:30.702Z,88.41
2023-02-18T06:11:02.646Z,88.40
2023-02-18T06:11:34.938Z,88.66
2023-02-18T06:12:06.822Z,88.72
2023-02-18T06:12:38.576Z,88.77
2023-02-18T06:13:10.173Z,88.92
2023-02-18T06:13:41.918Z,88.80
2023-02-18T06:14:13.537Z,89.00
2023-02-18T06:14:45.235Z,89.17
2023-02-18T06:15:16.828Z,89.17
2023-02-18T06:15:51.972Z,89.12
2023-02-18T06:16:23.810Z,89.46
2023-02-18T06:16:55.563Z,89.61
2023-02-18T06:17:27.369Z,89.54
2023-02-18T06:17:59.001Z,89.54
2023-02-18T06:18:30.825Z,89.92
2023-02-18T06:19:02.429Z,89.92
2023-02-18T06:19:34.066Z,89.90
2023-02-18T06:20:06.396Z,89.95
2023-02-18T06:20:39.516Z,90.03
2023-02-18T06:21:11.141Z,89.95
2023-02-18T06:21:42.891Z,90.08
2023-02-18T06:22:14.951Z,90.35
2023-02-18T06:22:46.541Z,90.35
2023-02-18T06:23:18.945Z,90.32
2023-02-18T06:23:50.564Z,90.36
2023-02-18T06:24:22.139Z,90.49
2023-02-18T06:24:53.739Z,90.36
2023-02-18T06:25:25.353Z,90.40
2023-02-18T06:25:56.997Z,90.46
2023-02-18T06:26:28.604Z,90.49
2023-02-18T06:27:00.433Z,90.52
2023-02-18T06:27:32.062Z,90.76
2023-02-18T06:28:03.636Z,90.71
2023-02-18T06:28:35.399Z,90.78
2023-02-18T06:29:07.016Z,90.91
2023-02-18T06:29:38.711Z,90.99
2023-02-18T06:30:10.706Z,90.90
2023-02-18T06:30:42.517Z,90.90
2023-02-18T06:31:14.456Z,90.84
2023-02-18T06:31:46.282Z,90.96
2023-02-18T06:32:17.988Z,90.93
2023-02-18T06:32:49.731Z,90.98
2023-02-18T06:33:21.484Z,90.98
2023-02-18T06:33:53.083Z,90.96
2023-02-18T06:34:25.031Z,90.87
2023-02-18T06:34:56.658Z,90.77
2023-02-18T06:35:28.272Z,90.93
2023-02-18T06:36:03.737Z,90.93
2023-02-18T06:36:35.493Z,90.79
2023-02-18T06:37:07.063Z,90.84
2023-02-18T06:37:38.726Z,90.72
2023-02-18T06:38:10.357Z,90.52
2023-02-18T06:38:44.275Z,90.41
2023-02-18T06:39:15.883Z,90.67
2023-02-18T06:39:47.483Z,90.74
2023-02-18T06:40:19.284Z,90.67
2023-02-18T06:40:51.095Z,90.96
2023-02-18T06:41:22.755Z,90.92
2023-02-18T06:41:54.336Z,90.80
2023-02-18T06:42:25.907Z,91.04
2023-02-18T06:42:57.645Z,90.94
2023-02-18T06:43:29.661Z,91.05
2023-02-18T06:44:01.282Z,91.02
2023-02-18T06:44:32.896Z,91.02
2023-02-18T06:45:06.655Z,90.98
2023-02-18T06:45:39.592Z,90.91
2023-02-18T06:46:11.630Z,91.20
2023-02-18T06:46:44.127Z,91.17
2023-02-18T06:47:15.854Z,90.96
2023-02-18T06:47:47.628Z,90.94
2023-02-18T06:48:19.265Z,91.06
2023-02-18T06:48:50.909Z,91.17
2023-02-18T06:49:22.609Z,91.31
2023-02-18T06:49:54.227Z,91.07
2023-02-18T06:50:25.816Z,91.00
2023-02-18T06:50:57.679Z,91.09
2023-02-18T06:51:29.331Z,91.04
2023-02-18T06:52:01.041Z,90.92
2023-02-18T06:52:34.527Z,90.83
2023-02-18T06:53:06.227Z,90.96
2023-02-18T06:53:37.846Z,90.93
2023-02-18T06:54:09.704Z,90.84
2023-02-18T06:54:41.285Z,90.98
2023-02-18T06:55:12.986Z,90.83
2023-02-18T06:55:45.229Z,90.87
2023-02-18T06:56:17.328Z,90.64
2023-02-18T06:56:48.937Z,90.53
2023-02-18T06:57:20.699Z,90.53
2023-02-18T06:57:52.359Z,90.52
2023-02-18T06:58:24.020Z,90.53
2023-02-18T06:58:55.604Z,90.47
2023-02-18T06:59:27.179Z,90.50
2023-02-18T06:59:58.877Z,90.62
2023-02-18T07:00:30.876Z,90.87
2023-02-18T07:01:02.728Z,90.97
2023-02-18T07:01:34.483Z,90.78
2023-02-18T07:02:06.259Z,90.69
2023-02-18T07:02:37.942Z,90.57
2023-02-18T07:03:14.833Z,90.55
2023-02-18T07:03:49.044Z,90.63
2023-02-18T07:04:21.655Z,90.75
2023-02-18T07:04:53.303Z,90.89
2023-02-18T07:05:24.964Z,90.81
2023-02-18T07:05:56.883Z,90.59
2023-02-18T07:06:28.495Z,90.61
2023-02-18T07:07:00.112Z,90.46
2023-02-18T07:07:31.765Z,90.42
2023-02-18T07:08:03.486Z,90.42
2023-02-18T07:08:37.742Z,90.34
2023-02-18T07:09:09.350Z,90.33
2023-02-18T07:09:40.974Z,90.07
2023-02-18T07:10:12.876Z,89.80
2023-02-18T07:10:44.480Z,89.98
2023-02-18T07:11:16.123Z,89.74
2023-02-18T07:11:48.038Z,89.58
2023-02-18T07:12:19.774Z,89.59
2023-02-18T07:12:51.330Z,89.59
2023-02-18T07:13:23.104Z,89.39
2023-02-18T07:13:54.744Z,89.23
2023-02-18T07:14:27.795Z,89.25
2023-02-18T07:14:59.653Z,89.03
2023-02-18T07:15:31.603Z,89.10
2023-02-18T07:16:03.335Z,88.94
2023-02-18T07:16:35.054Z,88.96
2023-02-18T07:17:06.714Z,89.00
2023-02-18T07:17:38.440Z,88.96
2023-02-18T07:18:10.044Z,88.92
2023-02-18T07:18:41.738Z,88.89
2023-02-18T07:19:14.852Z,88.95
2023-02-18T07:19:46.578Z,88.88
2023-02-18T07:20:18.781Z,88.76
2023-02-18T07:20:50.382Z,88.76
2023-02-18T07:21:22.018Z,88.81
2023-02-18T07:21:57.599Z,88.82
2023-02-18T07:22:29.323Z,88.71
2023-02-18T07:23:01.058Z,88.88
2023-02-18T07:23:32.709Z,88.83
2023-02-18T07:24:04.619Z,88.85